createdAt,value
2018-01-13T00:00:31.689Z,3.03
2018-01-13T00:01:12.248Z,3.1
2018-01-13T00:01:52.814Z,3.05
2018-01-13T00:02:33.369Z,3.08
2018-01-13T00:03:13.925Z,3.05
2018-01-13T00:03:54.504Z,3.07
2018-01-13T00:04:35.249Z,3.11
2018-01-13T00:05:15.854Z,3.11
2018-01-13T00:05:56.436Z,3.05
2018-01-13T00:06:37.011Z,3.04
2018-01-13T00:07:17.578Z,3.04
2018-01-13T00:07:58.149Z,3.08
2018-01-13T00:08:38.713Z,3.04
2018-01-13T00:09:19.286Z,3.08
2018-01-13T00:09:59.867Z,3.04
2018-01-13T00:10:40.421Z,3.08
2018-01-13T00:11:21.001Z,3.08
2018-01-13T00:12:01.581Z,3.08
2018-01-13T00:12:42.316Z,3.1
2018-01-13T00:13:22.791Z,3.07
2018-01-13T00:14:03.351Z,3.1
2018-01-13T00:14:43.934Z,3.08
2018-01-13T00:15:24.552Z,3.07
2018-01-13T00:16:05.117Z,3.01
2018-01-13T00:16:45.724Z,3.05
2018-01-13T00:17:26.293Z,3.13
2018-01-13T00:18:06.878Z,3.07
2018-01-13T00:18:47.442Z,3.03
2018-01-13T00:19:28.033Z,2.97
2018-01-13T00:20:08.618Z,3.01
2018-01-13T00:20:49.188Z,3
2018-01-13T00:21:29.744Z,2.97
2018-01-13T00:22:10.300Z,2.93
2018-01-13T00:22:50.889Z,2.85
2018-01-13T00:23:31.465Z,2.82
2018-01-13T00:24:12.030Z,2.86
2018-01-13T00:24:52.620Z,2.89
2018-01-13T00:25:33.171Z,2.89
2018-01-13T00:26:13.731Z,2.92
2018-01-13T00:26:54.311Z,2.86
2018-01-13T00:27:34.874Z,2.87
2018-01-13T00:28:15.449Z,2.93
2018-01-13T00:28:56.033Z,2.89
2018-01-13T00:29:36.593Z,2.86
2018-01-13T00:30:17.167Z,2.92
2018-01-13T00:30:57.742Z,2.93
2018-01-13T00:31:38.293Z,2.89
2018-01-13T00:32:18.850Z,2.83
2018-01-13T00:32:59.444Z,2.92
2018-01-13T00:33:40.023Z,2.8
2018-01-13T00:34:20.582Z,2.86
2018-01-13T00:35:01.159Z,2.92
2018-01-13T00:35:41.711Z,2.85
2018-01-13T00:36:22.283Z,2.85
2018-01-13T00:37:02.871Z,2.86
2018-01-13T00:37:43.445Z,2.89
2018-01-13T00:38:24.001Z,2.92
2018-01-13T00:39:04.568Z,2.9
2018-01-13T00:39:45.123Z,2.87
2018-01-13T00:40:25.700Z,2.87
2018-01-13T00:41:06.278Z,2.83
2018-01-13T00:41:46.837Z,2.9
2018-01-13T00:42:27.406Z,2.89
2018-01-13T00:43:07.979Z,2.89
2018-01-13T00:43:48.558Z,2.93
2018-01-13T00:44:29.130Z,2.87
2018-01-13T00:45:09.708Z,2.86
2018-01-13T00:45:50.270Z,2.9
2018-01-13T00:46:30.832Z,2.92
2018-01-13T00:47:11.416Z,2.9
2018-01-13T00:47:51.977Z,2.92
2018-01-13T00:48:32.576Z,2.92
2018-01-13T00:49:13.162Z,2.82
2018-01-13T00:49:53.727Z,2.83
2018-01-13T00:50:34.310Z,2.86
2018-01-13T00:51:14.874Z,2.86
2018-01-13T00:51:55.449Z,2.85
2018-01-13T00:52:36.058Z,2.83
2018-01-13T00:53:16.610Z,2.72
2018-01-13T00:53:57.168Z,2.79
2018-01-13T00:54:37.729Z,2.82
2018-01-13T00:55:18.315Z,2.79
2018-01-13T00:55:58.874Z,2.77
2018-01-13T00:56:39.429Z,2.85
2018-01-13T00:57:19.989Z,2.86
2018-01-13T00:58:00.569Z,2.85
2018-01-13T00:58:41.134Z,2.85
2018-01-13T00:59:21.706Z,2.82
2018-01-13T01:00:02.276Z,2.85
2018-01-13T01:00:42.856Z,2.85
2018-01-13T01:01:23.416Z,2.86
2018-01-13T01:02:04.005Z,2.72
2018-01-13T01:02:44.586Z,2.86
2018-01-13T01:03:25.141Z,2.8
2018-01-13T01:04:05.710Z,2.79
2018-01-13T01:04:46.271Z,2.77
2018-01-13T01:05:26.833Z,2.85
2018-01-13T01:06:07.412Z,2.75
2018-01-13T01:06:48.028Z,2.85
2018-01-13T01:07:28.598Z,2.86
2018-01-13T01:08:09.159Z,2.8
2018-01-13T01:08:49.750Z,2.75
2018-01-13T01:09:30.308Z,2.86
2018-01-13T01:10:10.887Z,2.87
2018-01-13T01:10:51.470Z,2.89
2018-01-13T01:11:32.047Z,2.9
2018-01-13T01:12:12.601Z,2.86
2018-01-13T01:12:53.160Z,2.83
2018-01-13T01:13:33.717Z,2.83
2018-01-13T01:14:14.274Z,2.85
2018-01-13T01:14:54.830Z,2.83
2018-01-13T01:15:35.410Z,2.89
2018-01-13T01:16:15.988Z,2.89
2018-01-13T01:16:56.543Z,2.9
2018-01-13T01:17:37.101Z,2.92
2018-01-13T01:18:17.652Z,2.89
2018-01-13T01:18:58.232Z,2.89
2018-01-13T01:19:38.787Z,2.79
2018-01-13T01:20:19.351Z,2.86
2018-01-13T01:20:59.912Z,2.85
2018-01-13T01:21:40.499Z,2.72
2018-01-13T01:22:21.064Z,2.75
2018-01-13T01:23:01.638Z,2.79
2018-01-13T01:23:42.188Z,2.74
2018-01-13T01:24:22.743Z,2.8
2018-01-13T01:25:03.301Z,2.71
2018-01-13T01:25:43.890Z,2.77
2018-01-13T01:26:24.450Z,2.74
2018-01-13T01:27:05.024Z,2.8
2018-01-13T01:27:45.574Z,2.75
2018-01-13T01:28:26.133Z,2.72
2018-01-13T01:29:06.693Z,2.77
2018-01-13T01:29:47.281Z,2.77
2018-01-13T01:30:27.838Z,2.87
2018-01-13T01:31:08.403Z,2.87
2018-01-13T01:31:48.973Z,2.8
2018-01-13T01:32:29.542Z,2.85
2018-01-13T01:33:10.107Z,2.68
2018-01-13T01:33:50.731Z,2.87
2018-01-13T01:34:31.302Z,2.83
2018-01-13T01:35:11.864Z,2.82
2018-01-13T01:35:52.422Z,2.79
2018-01-13T01:36:32.995Z,2.79
2018-01-13T01:37:13.576Z,2.77
2018-01-13T01:37:54.135Z,2.72
2018-01-13T01:38:34.697Z,2.85
2018-01-13T01:39:15.261Z,2.72
2018-01-13T01:39:55.825Z,2.74
2018-01-13T01:40:36.390Z,2.9
2018-01-13T01:41:16.954Z,2.9
2018-01-13T01:41:57.520Z,2.79
2018-01-13T01:42:38.070Z,2.77
2018-01-13T01:43:18.628Z,2.8
2018-01-13T01:43:59.182Z,2.79
2018-01-13T01:44:39.738Z,2.8
2018-01-13T01:45:20.301Z,2.72
2018-01-13T01:46:00.876Z,2.89
2018-01-13T01:46:41.442Z,2.71
2018-01-13T01:47:22.032Z,2.75
2018-01-13T01:48:02.589Z,2.77
2018-01-13T01:48:43.146Z,2.79
2018-01-13T01:49:23.706Z,2.75
2018-01-13T01:50:04.275Z,2.77
2018-01-13T01:50:44.834Z,2.75
2018-01-13T01:51:25.397Z,2.92
2018-01-13T01:52:05.958Z,2.75
2018-01-13T01:52:46.533Z,2.79
2018-01-13T01:53:27.094Z,2.77
2018-01-13T01:54:07.654Z,2.86
2018-01-13T01:54:48.213Z,2.79
2018-01-13T01:55:28.769Z,2.79
2018-01-13T01:56:09.323Z,2.75
2018-01-13T01:56:49.876Z,2.72
2018-01-13T01:57:30.440Z,2.89
2018-01-13T01:58:11.000Z,2.71
2018-01-13T01:58:51.570Z,2.75
2018-01-13T01:59:32.134Z,2.72
2018-01-13T02:00:12.697Z,2.8
2018-01-13T02:00:53.270Z,2.71
2018-01-13T02:01:33.831Z,2.75
2018-01-13T02:02:14.382Z,2.74
2018-01-13T02:02:54.953Z,2.72
2018-01-13T02:03:35.512Z,2.77
2018-01-13T02:04:16.078Z,2.85
2018-01-13T02:04:56.644Z,2.82
2018-01-13T02:05:37.207Z,2.74
2018-01-13T02:06:17.768Z,2.74
2018-01-13T02:06:58.336Z,2.67
2018-01-13T02:07:38.955Z,2.72
2018-01-13T02:08:19.529Z,2.67
2018-01-13T02:09:00.129Z,2.74
2018-01-13T02:09:40.690Z,2.69
2018-01-13T02:10:21.252Z,2.72
2018-01-13T02:11:01.830Z,2.71
2018-01-13T02:11:42.407Z,2.74
2018-01-13T02:12:26.431Z,2.69
2018-01-13T02:13:08.957Z,2.71
2018-01-13T02:13:52.511Z,2.74
2018-01-13T02:14:36.003Z,2.74
2018-01-13T02:15:19.935Z,2.82
2018-01-13T02:16:04.986Z,2.71
2018-01-13T02:16:45.494Z,2.72
2018-01-13T02:17:31.991Z,2.72
2018-01-13T02:18:18.482Z,2.72
2018-01-13T02:19:00.949Z,2.79
2018-01-13T02:19:45.442Z,2.74
2018-01-13T02:20:31.925Z,2.83
2018-01-13T02:21:16.505Z,2.87
2018-01-13T02:22:00.425Z,2.92
2018-01-13T02:22:45.751Z,2.8
2018-01-13T02:23:32.394Z,2.9
2018-01-13T02:24:16.970Z,2.75
2018-01-13T02:24:58.437Z,2.71
2018-01-13T02:25:44.452Z,2.74
2018-01-13T02:26:27.310Z,2.74
2018-01-13T02:27:13.923Z,2.75
2018-01-13T02:27:57.412Z,2.74
2018-01-13T02:28:41.519Z,2.71
2018-01-13T02:29:24.365Z,2.74
2018-01-13T02:30:06.972Z,2.71
2018-01-13T02:30:48.895Z,2.67
2018-01-13T02:31:29.779Z,2.74
2018-01-13T02:32:10.957Z,2.74
2018-01-13T02:32:52.462Z,2.72
2018-01-13T02:33:33.012Z,2.72
2018-01-13T02:34:15.871Z,2.74
2018-01-13T02:34:57.031Z,2.72
2018-01-13T02:35:39.067Z,2.71
2018-01-13T02:36:19.632Z,2.75
2018-01-13T02:37:00.486Z,2.71
2018-01-13T02:37:41.048Z,2.77
2018-01-13T02:38:22.680Z,2.72
2018-01-13T02:39:03.344Z,2.79
2018-01-13T02:39:44.317Z,2.67
2018-01-13T02:40:24.879Z,2.69
2018-01-13T02:41:05.433Z,2.72
2018-01-13T02:41:46.015Z,2.79
2018-01-13T02:42:26.579Z,2.69
2018-01-13T02:43:07.136Z,2.68
2018-01-13T02:43:47.717Z,2.68
2018-01-13T02:44:28.280Z,2.61
2018-01-13T02:45:08.840Z,2.57
2018-01-13T02:45:49.420Z,2.57
2018-01-13T02:46:29.985Z,2.64
2018-01-13T02:47:10.544Z,2.61
2018-01-13T02:47:51.115Z,2.61
2018-01-13T02:48:31.672Z,2.65
2018-01-13T02:49:12.230Z,2.57
2018-01-13T02:49:52.801Z,2.61
2018-01-13T02:50:33.352Z,2.57
2018-01-13T02:51:13.904Z,2.62
2018-01-13T02:51:54.478Z,2.67
2018-01-13T02:52:35.032Z,2.6
2018-01-13T02:53:15.599Z,2.68
2018-01-13T02:53:56.174Z,2.54
2018-01-13T02:54:36.741Z,2.57
2018-01-13T02:55:17.296Z,2.64
2018-01-13T02:55:57.852Z,2.68
2018-01-13T02:56:38.460Z,2.68
2018-01-13T02:57:19.019Z,2.68
2018-01-13T02:57:59.605Z,2.68
2018-01-13T02:58:40.175Z,2.61
2018-01-13T02:59:20.753Z,2.51
2018-01-13T03:00:01.337Z,2.57
2018-01-13T03:00:41.901Z,2.57
2018-01-13T03:01:22.477Z,2.51
2018-01-13T03:02:03.030Z,2.57
2018-01-13T03:02:43.610Z,2.57
2018-01-13T03:03:24.175Z,2.57
2018-01-13T03:04:04.746Z,2.56
2018-01-13T03:04:45.309Z,2.56
2018-01-13T03:05:25.886Z,2.6
2018-01-13T03:06:06.445Z,2.56
2018-01-13T03:06:47.031Z,2.61
2018-01-13T03:07:27.608Z,2.57
2018-01-13T03:08:08.168Z,2.5
2018-01-13T03:08:48.736Z,2.57
2018-01-13T03:09:29.309Z,2.5
2018-01-13T03:10:09.875Z,2.54
2018-01-13T03:10:50.443Z,2.56
2018-01-13T03:11:31.017Z,2.51
2018-01-13T03:12:11.571Z,2.53
2018-01-13T03:12:52.137Z,2.61
2018-01-13T03:13:32.689Z,2.62
2018-01-13T03:14:13.253Z,2.56
2018-01-13T03:14:53.823Z,2.57
2018-01-13T03:15:34.394Z,2.61
2018-01-13T03:16:14.956Z,2.62
2018-01-13T03:16:55.513Z,2.67
2018-01-13T03:17:36.074Z,2.67
2018-01-13T03:18:16.666Z,2.61
2018-01-13T03:18:57.222Z,2.56
2018-01-13T03:19:37.778Z,2.62
2018-01-13T03:20:18.349Z,2.65
2018-01-13T03:20:58.933Z,2.61
2018-01-13T03:21:39.485Z,2.61
2018-01-13T03:22:20.061Z,2.67
2018-01-13T03:23:00.613Z,2.57
2018-01-13T03:23:41.175Z,2.62
2018-01-13T03:24:21.742Z,2.61
2018-01-13T03:25:02.300Z,2.61
2018-01-13T03:25:42.848Z,2.53
2018-01-13T03:26:23.413Z,2.57
2018-01-13T03:27:03.968Z,2.57
2018-01-13T03:27:44.523Z,2.54
2018-01-13T03:28:25.069Z,2.56
2018-01-13T03:29:05.628Z,2.56
2018-01-13T03:29:46.186Z,2.53
2018-01-13T03:30:26.744Z,2.51
2018-01-13T03:31:07.291Z,2.43
2018-01-13T03:31:47.861Z,2.44
2018-01-13T03:32:28.427Z,2.54
2018-01-13T03:33:08.989Z,2.5
2018-01-13T03:33:49.549Z,2.54
2018-01-13T03:34:30.103Z,2.61
2018-01-13T03:35:10.661Z,2.57
2018-01-13T03:35:51.250Z,2.53
2018-01-13T03:36:31.810Z,2.62
2018-01-13T03:37:12.371Z,2.54
2018-01-13T03:37:52.947Z,2.54
2018-01-13T03:38:33.507Z,2.62
2018-01-13T03:39:14.060Z,2.61
2018-01-13T03:39:54.615Z,2.54
2018-01-13T03:40:35.178Z,2.61
2018-01-13T03:41:15.745Z,2.54
2018-01-13T03:41:56.301Z,2.64
2018-01-13T03:42:36.859Z,2.56
2018-01-13T03:43:17.429Z,2.62
2018-01-13T03:43:57.994Z,2.65
2018-01-13T03:44:38.570Z,2.56
2018-01-13T03:45:19.126Z,2.56
2018-01-13T03:45:59.677Z,2.54
2018-01-13T03:46:40.244Z,2.53
2018-01-13T03:47:20.804Z,2.5
2018-01-13T03:48:01.377Z,2.44
2018-01-13T03:48:41.937Z,2.5
2018-01-13T03:49:22.490Z,2.47
2018-01-13T03:50:03.053Z,2.51
2018-01-13T03:50:43.626Z,2.49
2018-01-13T03:51:24.190Z,2.49
2018-01-13T03:52:04.758Z,2.44
2018-01-13T03:52:45.320Z,2.49
2018-01-13T03:53:25.881Z,2.49
2018-01-13T03:54:06.436Z,2.56
2018-01-13T03:54:46.989Z,2.49
2018-01-13T03:55:27.548Z,2.57
2018-01-13T03:56:08.129Z,2.54
2018-01-13T03:56:48.731Z,2.51
2018-01-13T03:57:29.311Z,2.6
2018-01-13T03:58:09.870Z,2.57
2018-01-13T03:58:50.430Z,2.61
2018-01-13T03:59:30.980Z,2.46
2018-01-13T04:00:11.566Z,2.49
2018-01-13T04:00:52.140Z,2.49
2018-01-13T04:01:32.715Z,2.51
2018-01-13T04:02:13.288Z,2.49
2018-01-13T04:02:53.895Z,2.43
2018-01-13T04:03:34.455Z,2.44
2018-01-13T04:04:15.017Z,2.47
2018-01-13T04:04:55.589Z,2.49
2018-01-13T04:05:36.164Z,2.5
2018-01-13T04:06:16.732Z,2.54
2018-01-13T04:06:57.307Z,2.57
2018-01-13T04:07:37.872Z,2.6
2018-01-13T04:08:18.443Z,2.56
2018-01-13T04:08:59.027Z,2.61
2018-01-13T04:09:39.593Z,2.57
2018-01-13T04:10:20.172Z,2.64
2018-01-13T04:11:00.723Z,2.64
2018-01-13T04:11:41.289Z,2.49
2018-01-13T04:12:21.883Z,2.61
2018-01-13T04:13:02.457Z,2.57
2018-01-13T04:13:43.010Z,2.53
2018-01-13T04:14:23.573Z,2.62
2018-01-13T04:15:04.124Z,2.53
2018-01-13T04:15:44.726Z,2.62
2018-01-13T04:16:25.302Z,2.56
2018-01-13T04:17:05.877Z,2.57
2018-01-13T04:17:46.444Z,2.65
2018-01-13T04:18:27.058Z,2.53
2018-01-13T04:19:07.599Z,2.6
2018-01-13T04:19:48.152Z,2.57
2018-01-13T04:20:28.722Z,2.57
2018-01-13T04:21:09.285Z,2.57
2018-01-13T04:21:49.854Z,2.57
2018-01-13T04:22:30.431Z,2.57
2018-01-13T04:23:11.008Z,2.49
2018-01-13T04:23:51.588Z,2.57
2018-01-13T04:24:32.199Z,2.47
2018-01-13T04:25:12.769Z,2.5
2018-01-13T04:25:53.330Z,2.5
2018-01-13T04:26:33.890Z,2.49
2018-01-13T04:27:14.450Z,2.43
2018-01-13T04:27:55.015Z,2.5
2018-01-13T04:28:35.586Z,2.44
2018-01-13T04:29:16.195Z,2.54
2018-01-13T04:29:56.757Z,2.49
2018-01-13T04:30:37.336Z,2.42
2018-01-13T04:31:17.894Z,2.5
2018-01-13T04:31:58.460Z,2.47
2018-01-13T04:32:39.018Z,2.47
2018-01-13T04:33:19.589Z,2.44
2018-01-13T04:34:00.133Z,2.44
2018-01-13T04:34:40.717Z,2.47
2018-01-13T04:35:21.298Z,2.43
2018-01-13T04:36:01.864Z,2.42
2018-01-13T04:36:42.416Z,2.44
2018-01-13T04:37:22.988Z,2.38
2018-01-13T04:38:03.553Z,2.42
2018-01-13T04:38:44.171Z,2.43
2018-01-13T04:39:24.748Z,2.35
2018-01-13T04:40:05.304Z,2.42
2018-01-13T04:40:45.896Z,2.38
2018-01-13T04:41:26.467Z,2.47
2018-01-13T04:42:07.045Z,2.44
2018-01-13T04:42:47.614Z,2.36
2018-01-13T04:43:28.178Z,2.42
2018-01-13T04:44:08.738Z,2.31
2018-01-13T04:44:49.297Z,2.38
2018-01-13T04:45:29.872Z,2.36
2018-01-13T04:46:10.435Z,2.38
2018-01-13T04:46:50.990Z,2.38
2018-01-13T04:47:31.548Z,2.42
2018-01-13T04:48:12.131Z,2.33
2018-01-13T04:48:52.706Z,2.44
2018-01-13T04:49:33.280Z,2.43
2018-01-13T04:50:14.603Z,2.46
2018-01-13T04:50:55.170Z,2.44
2018-01-13T04:51:35.860Z,2.49
2018-01-13T04:52:16.506Z,2.43
2018-01-13T04:52:57.075Z,2.44
2018-01-13T04:53:37.638Z,2.49
2018-01-13T04:54:18.208Z,2.54
2018-01-13T04:54:58.797Z,2.54
2018-01-13T04:55:39.372Z,2.56
2018-01-13T04:56:19.928Z,2.56
2018-01-13T04:57:00.503Z,2.57
2018-01-13T04:57:41.065Z,2.53
2018-01-13T04:58:21.652Z,2.6
2018-01-13T04:59:02.202Z,2.61
2018-01-13T04:59:42.779Z,2.56
2018-01-13T05:00:23.346Z,2.56
2018-01-13T05:01:03.909Z,2.51
2018-01-13T05:01:44.455Z,2.44
2018-01-13T05:02:25.029Z,2.53
2018-01-13T05:03:05.591Z,2.47
2018-01-13T05:03:46.155Z,2.5
2018-01-13T05:04:26.772Z,2.44
2018-01-13T05:05:07.329Z,2.53
2018-01-13T05:05:47.912Z,2.39
2018-01-13T05:06:28.470Z,2.44
2018-01-13T05:07:09.042Z,2.44
2018-01-13T05:07:49.592Z,2.47
2018-01-13T05:08:30.143Z,2.46
2018-01-13T05:09:10.730Z,2.43
2018-01-13T05:09:51.276Z,2.46
2018-01-13T05:10:31.827Z,2.47
2018-01-13T05:11:12.387Z,2.51
2018-01-13T05:11:52.952Z,2.57
2018-01-13T05:12:33.496Z,2.47
2018-01-13T05:13:14.112Z,2.47
2018-01-13T05:13:54.668Z,2.5
2018-01-13T05:14:35.230Z,2.43
2018-01-13T05:15:15.805Z,2.42
2018-01-13T05:15:56.357Z,2.44
2018-01-13T05:16:36.920Z,2.43
2018-01-13T05:17:17.482Z,2.43
2018-01-13T05:17:58.044Z,2.36
2018-01-13T05:18:38.626Z,2.39
2018-01-13T05:19:19.213Z,2.44
2018-01-13T05:19:59.799Z,2.44
2018-01-13T05:20:40.359Z,2.43
2018-01-13T05:21:20.918Z,2.42
2018-01-13T05:22:01.480Z,2.49
2018-01-13T05:22:42.062Z,2.46
2018-01-13T05:23:22.636Z,2.38
2018-01-13T05:24:03.243Z,2.35
2018-01-13T05:24:43.782Z,2.36
2018-01-13T05:25:24.360Z,2.38
2018-01-13T05:26:04.948Z,2.46
2018-01-13T05:26:45.504Z,2.36
2018-01-13T05:27:26.072Z,2.33
2018-01-13T05:28:06.658Z,2.36
2018-01-13T05:28:47.262Z,2.38
2018-01-13T05:29:27.855Z,2.33
2018-01-13T05:30:08.496Z,2.38
2018-01-13T05:30:49.074Z,2.29
2018-01-13T05:31:29.662Z,2.39
2018-01-13T05:32:10.256Z,2.35
2018-01-13T05:32:50.818Z,2.36
2018-01-13T05:33:31.376Z,2.38
2018-01-13T05:34:11.970Z,2.39
2018-01-13T05:34:52.544Z,2.35
2018-01-13T05:35:33.121Z,2.36
2018-01-13T05:36:13.690Z,2.33
2018-01-13T05:36:54.264Z,2.38
2018-01-13T05:37:34.819Z,2.35
2018-01-13T05:38:15.398Z,2.35
2018-01-13T05:38:55.955Z,2.33
2018-01-13T05:39:36.508Z,2.32
2018-01-13T05:40:17.068Z,2.33
2018-01-13T05:40:57.619Z,2.35
2018-01-13T05:41:38.179Z,2.33
2018-01-13T05:42:18.768Z,2.33
2018-01-13T05:42:59.336Z,2.32
2018-01-13T05:43:39.895Z,2.29
2018-01-13T05:44:20.463Z,2.33
2018-01-13T05:45:01.033Z,2.36
2018-01-13T05:45:41.597Z,2.33
2018-01-13T05:46:22.154Z,2.31
2018-01-13T05:47:02.723Z,2.32
2018-01-13T05:47:43.289Z,2.32
2018-01-13T05:48:23.849Z,2.32
2018-01-13T05:49:04.417Z,2.32
2018-01-13T05:49:44.969Z,2.31
2018-01-13T05:50:25.530Z,2.29
2018-01-13T05:51:06.109Z,2.32
2018-01-13T05:51:46.678Z,2.35
2018-01-13T05:52:27.247Z,2.33
2018-01-13T05:53:07.794Z,2.29
2018-01-13T05:53:48.359Z,2.33
2018-01-13T05:54:28.927Z,2.35
2018-01-13T05:55:09.481Z,2.29
2018-01-13T05:55:50.045Z,2.39
2018-01-13T05:56:30.600Z,2.33
2018-01-13T05:57:11.186Z,2.31
2018-01-13T05:57:51.756Z,2.35
2018-01-13T05:58:32.324Z,2.33
2018-01-13T05:59:12.897Z,2.33
2018-01-13T05:59:53.475Z,2.38
2018-01-13T06:00:34.045Z,2.35
2018-01-13T06:01:14.607Z,2.36
2018-01-13T06:01:55.171Z,2.39
2018-01-13T06:02:35.719Z,2.36
2018-01-13T06:03:16.281Z,2.32
2018-01-13T06:03:56.853Z,2.39
2018-01-13T06:04:37.436Z,2.36
2018-01-13T06:05:17.984Z,2.43
2018-01-13T06:05:58.550Z,2.35
2018-01-13T06:06:39.103Z,2.35
2018-01-13T06:07:19.665Z,2.38
2018-01-13T06:08:00.219Z,2.33
2018-01-13T06:08:40.812Z,2.36
2018-01-13T06:09:21.380Z,2.43
2018-01-13T06:10:01.959Z,2.36
2018-01-13T06:10:42.517Z,2.33
2018-01-13T06:11:23.091Z,2.33
2018-01-13T06:12:03.681Z,2.28
2018-01-13T06:12:44.245Z,2.33
2018-01-13T06:13:24.805Z,2.29
2018-01-13T06:14:05.368Z,2.32
2018-01-13T06:14:45.943Z,2.33
2018-01-13T06:15:26.506Z,2.32
2018-01-13T06:16:07.056Z,2.33
2018-01-13T06:16:47.623Z,2.35
2018-01-13T06:17:28.237Z,2.35
2018-01-13T06:18:08.849Z,2.42
2018-01-13T06:18:49.844Z,2.39
2018-01-13T06:19:30.399Z,2.31
2018-01-13T06:20:10.972Z,2.32
2018-01-13T06:20:51.538Z,2.31
2018-01-13T06:21:32.177Z,2.29
2018-01-13T06:22:12.747Z,2.32
2018-01-13T06:22:53.317Z,2.33
2018-01-13T06:23:33.885Z,2.33
2018-01-13T06:24:14.453Z,2.35
2018-01-13T06:24:55.021Z,2.33
2018-01-13T06:25:35.597Z,2.32
2018-01-13T06:26:16.191Z,2.33
2018-01-13T06:26:56.775Z,2.33
2018-01-13T06:27:37.422Z,2.36
2018-01-13T06:28:17.982Z,2.32
2018-01-13T06:28:58.555Z,2.28
2018-01-13T06:29:39.137Z,2.33
2018-01-13T06:30:19.694Z,2.26
2018-01-13T06:31:00.261Z,2.18
2018-01-13T06:31:40.838Z,2.28
2018-01-13T06:32:21.420Z,2.26
2018-01-13T06:33:01.985Z,2.25
2018-01-13T06:33:42.546Z,2.26
2018-01-13T06:34:23.123Z,2.28
2018-01-13T06:35:03.704Z,2.26
2018-01-13T06:35:44.276Z,2.31
2018-01-13T06:36:24.853Z,2.26
2018-01-13T06:37:05.429Z,2.32
2018-01-13T06:37:46.006Z,2.28
2018-01-13T06:38:26.582Z,2.33
2018-01-13T06:39:07.200Z,2.31
2018-01-13T06:39:47.725Z,2.26
2018-01-13T06:40:28.278Z,2.28
2018-01-13T06:41:08.837Z,2.22
2018-01-13T06:41:49.402Z,2.22
2018-01-13T06:42:29.962Z,2.2
2018-01-13T06:43:10.529Z,2.22
2018-01-13T06:43:51.092Z,2.25
2018-01-13T06:44:31.653Z,2.29
2018-01-13T06:45:12.220Z,2.32
2018-01-13T06:45:52.795Z,2.32
2018-01-13T06:46:33.351Z,2.36
2018-01-13T06:47:13.947Z,2.31
2018-01-13T06:47:54.513Z,2.29
2018-01-13T06:48:35.115Z,2.36
2018-01-13T06:49:15.711Z,2.28
2018-01-13T06:49:56.266Z,2.29
2018-01-13T06:50:36.838Z,2.33
2018-01-13T06:51:17.394Z,2.31
2018-01-13T06:51:57.966Z,2.32
2018-01-13T06:52:38.523Z,2.33
2018-01-13T06:53:19.082Z,2.32
2018-01-13T06:53:59.653Z,2.32
2018-01-13T06:54:40.222Z,2.32
2018-01-13T06:55:20.793Z,2.38
2018-01-13T06:56:01.383Z,2.38
2018-01-13T06:56:41.941Z,2.33
2018-01-13T06:57:22.533Z,2.32
2018-01-13T06:58:03.096Z,2.32
2018-01-13T06:58:43.665Z,2.33
2018-01-13T06:59:24.260Z,2.28
2018-01-13T07:00:04.829Z,2.2
2018-01-13T07:00:45.394Z,2.18
2018-01-13T07:01:25.993Z,2.25
2018-01-13T07:02:06.550Z,2.25
2018-01-13T07:02:47.098Z,2.26
2018-01-13T07:03:27.665Z,2.29
2018-01-13T07:04:08.240Z,2.31
2018-01-13T07:04:48.843Z,2.35
2018-01-13T07:05:29.347Z,2.38
2018-01-13T07:06:09.925Z,2.29
2018-01-13T07:06:50.512Z,2.36
2018-01-13T07:07:31.059Z,2.29
2018-01-13T07:08:11.617Z,2.29
2018-01-13T07:08:52.182Z,2.31
2018-01-13T07:09:32.743Z,2.31
2018-01-13T07:10:13.307Z,2.26
2018-01-13T07:10:53.873Z,2.26
2018-01-13T07:11:34.453Z,2.18
2018-01-13T07:12:15.015Z,2.18
2018-01-13T07:12:55.567Z,2.24
2018-01-13T07:13:36.125Z,2.24
2018-01-13T07:14:16.678Z,2.2
2018-01-13T07:14:57.274Z,2.26
2018-01-13T07:15:37.844Z,2.22
2018-01-13T07:16:18.456Z,2.24
2018-01-13T07:16:59.029Z,2.25
2018-01-13T07:17:39.593Z,2.22
2018-01-13T07:18:20.162Z,2.31
2018-01-13T07:19:00.708Z,2.32
2018-01-13T07:19:41.308Z,2.35
2018-01-13T07:20:21.885Z,2.26
2018-01-13T07:21:02.484Z,2.35
2018-01-13T07:21:43.042Z,2.33
2018-01-13T07:22:23.820Z,2.33
2018-01-13T07:23:04.890Z,2.33
2018-01-13T07:23:45.648Z,2.32
2018-01-13T07:24:26.420Z,2.33
2018-01-13T07:25:07.049Z,2.28
2018-01-13T07:25:47.606Z,2.32
2018-01-13T07:26:28.351Z,2.33
2018-01-13T07:27:08.916Z,2.33
2018-01-13T07:27:49.667Z,2.35
2018-01-13T07:28:30.435Z,2.35
2018-01-13T07:29:11.038Z,2.32
2018-01-13T07:29:51.774Z,2.32
2018-01-13T07:30:32.340Z,2.26
2018-01-13T07:31:12.921Z,2.28
2018-01-13T07:31:53.489Z,2.31
2018-01-13T07:32:34.214Z,2.36
2018-01-13T07:33:15.180Z,2.24
2018-01-13T07:33:55.949Z,2.22
2018-01-13T07:34:36.716Z,2.17
2018-01-13T07:35:17.359Z,2.25
2018-01-13T07:35:57.955Z,2.28
2018-01-13T07:36:38.554Z,2.22
2018-01-13T07:37:19.122Z,2.25
2018-01-13T07:37:59.779Z,2.2
2018-01-13T07:38:40.465Z,2.22
2018-01-13T07:39:21.268Z,2.22
2018-01-13T07:40:01.830Z,2.29
2018-01-13T07:40:42.404Z,2.25
2018-01-13T07:41:23.728Z,2.22
2018-01-13T07:42:04.408Z,2.22
2018-01-13T07:42:45.178Z,2.24
2018-01-13T07:43:27.312Z,2.26
2018-01-13T07:44:08.080Z,2.26
2018-01-13T07:44:49.414Z,2.25
2018-01-13T07:45:30.178Z,2.15
2018-01-13T07:46:10.779Z,2.2
2018-01-13T07:46:51.833Z,2.24
2018-01-13T07:48:49.946Z,2.18
2018-01-13T07:49:30.462Z,2.24
2018-01-13T07:50:11.036Z,2.18
2018-01-13T07:50:51.603Z,2.15
2018-01-13T07:51:32.168Z,2.28
2018-01-13T07:52:12.716Z,2.2
2018-01-13T07:52:53.277Z,2.22
2018-01-13T07:53:33.837Z,2.2
2018-01-13T07:54:14.397Z,2.2
2018-01-13T07:54:54.970Z,2.17
2018-01-13T07:55:35.524Z,2.29
2018-01-13T07:56:16.098Z,2.2
2018-01-13T07:56:56.648Z,2.24
2018-01-13T07:57:37.215Z,2.25
2018-01-13T07:58:17.802Z,2.26
2018-01-13T07:58:58.352Z,2.22
2018-01-13T07:59:38.931Z,2.24
2018-01-13T08:00:19.519Z,2.18
2018-01-13T08:01:00.104Z,2.25
2018-01-13T08:01:40.656Z,2.2
2018-01-13T08:02:21.242Z,2.22
2018-01-13T08:03:01.786Z,2.24
2018-01-13T08:03:42.384Z,2.22
2018-01-13T08:04:22.969Z,2.24
2018-01-13T08:05:03.542Z,2.25
2018-01-13T08:05:44.129Z,2.38
2018-01-13T08:06:24.722Z,2.57
2018-01-13T08:07:05.283Z,2.72
2018-01-13T08:07:45.879Z,2.79
2018-01-13T08:08:26.417Z,2.82
2018-01-13T08:09:07.016Z,2.98
2018-01-13T08:09:47.561Z,3.19
2018-01-13T08:10:28.202Z,3.29
2018-01-13T08:11:08.763Z,3.69
2018-01-13T08:11:49.337Z,3.73
2018-01-13T08:12:29.898Z,3.83
2018-01-13T08:13:10.451Z,4.06
2018-01-13T08:13:51.017Z,4.13
2018-01-13T08:14:31.581Z,4.12
2018-01-13T08:15:12.138Z,4.05
2018-01-13T08:15:52.703Z,4.06
2018-01-13T08:16:33.272Z,4.06
2018-01-13T08:17:13.839Z,4.24
2018-01-13T08:17:54.407Z,4.24
2018-01-13T08:18:34.970Z,4.34
2018-01-13T08:19:15.546Z,4.41
2018-01-13T08:19:56.099Z,4.4
2018-01-13T08:20:36.672Z,4.56
2018-01-13T08:21:17.245Z,4.55
2018-01-13T08:21:57.809Z,4.66
2018-01-13T08:22:38.376Z,4.67
2018-01-13T08:23:18.940Z,4.67
2018-01-13T08:23:59.542Z,4.59
2018-01-13T08:24:40.100Z,4.63
2018-01-13T08:25:20.672Z,4.66
2018-01-13T08:26:01.286Z,4.59
2018-01-13T08:26:41.871Z,4.48
2018-01-13T08:27:22.495Z,4.48
2018-01-13T08:28:03.075Z,4.49
2018-01-13T08:28:43.651Z,4.42
2018-01-13T08:29:24.229Z,4.44
2018-01-13T08:30:04.811Z,4.37
2018-01-13T08:30:45.384Z,4.23
2018-01-13T08:31:26.015Z,4.26
2018-01-13T08:32:06.589Z,4.28
2018-01-13T08:32:47.166Z,4.13
2018-01-13T08:33:27.767Z,4.17
2018-01-13T08:34:08.323Z,4.24
2018-01-13T08:34:48.875Z,4.35
2018-01-13T08:35:29.483Z,4.4
2018-01-13T08:36:10.041Z,4.4
2018-01-13T08:36:50.603Z,4.37
2018-01-13T08:37:31.176Z,4.45
2018-01-13T08:38:11.766Z,4.32
2018-01-13T08:38:52.334Z,4.24
2018-01-13T08:39:32.903Z,4.2
2018-01-13T08:40:13.471Z,4.37
2018-01-13T08:40:54.023Z,4.31
2018-01-13T08:41:34.578Z,4.34
2018-01-13T08:42:15.149Z,4.3
2018-01-13T08:42:55.735Z,4.06
2018-01-13T08:43:36.291Z,3.99
2018-01-13T08:44:16.866Z,3.8
2018-01-13T08:44:57.466Z,3.8
2018-01-13T08:45:38.030Z,3.8
2018-01-13T08:46:18.585Z,3.68
2018-01-13T08:46:59.187Z,3.63
2018-01-13T08:47:39.758Z,3.55
2018-01-13T08:48:20.313Z,3.41
2018-01-13T08:49:00.904Z,3.42
2018-01-13T08:49:41.504Z,3.28
2018-01-13T08:50:22.060Z,3.26
2018-01-13T08:51:02.649Z,3.22
2018-01-13T08:51:43.208Z,3.1
2018-01-13T08:52:23.775Z,3.01
2018-01-13T08:53:04.331Z,2.83
2018-01-13T08:53:44.888Z,2.85
2018-01-13T08:54:25.448Z,2.83
2018-01-13T08:55:06.014Z,2.72
2018-01-13T08:55:46.603Z,2.68
2018-01-13T08:56:27.161Z,2.64
2018-01-13T08:57:07.720Z,2.56
2018-01-13T08:57:48.275Z,2.53
2018-01-13T08:58:29.207Z,2.49
2018-01-13T08:59:09.780Z,2.47
2018-01-13T08:59:50.496Z,2.43
2018-01-13T09:00:31.058Z,2.43
2018-01-13T09:01:11.644Z,2.47
2018-01-13T09:01:52.278Z,2.44
2018-01-13T09:02:32.851Z,2.38
2018-01-13T09:03:13.437Z,2.44
2018-01-13T09:03:53.996Z,2.46
2018-01-13T09:04:34.566Z,2.5